MZT weather

General Rafael Buelna International Airport
Mazatlán, Sinaloa, Mexico

Public forecast

Using degrees Celsius for public forecast. Weather courtesy of forecast.io.

Current aviation weather report (METAR) for General Rafael Buelna International Airport

Retrieved 2019/11/20 15:44 UTC (40 minutes ago):

MMMZ 201544Z 15005KT 14SM FEW240 29/23 A2994 RMK 8/002 ISOL TCU S-NW

Aviation forecast (TAF) for General Rafael Buelna International Airport

Retrieved 2019/11/20 12:55 UTC (3 hours ago):

TAF MMMZ 201048Z 2012/2118 34005KT P6SM BKN090 OVC250 TX33/2019Z TN22/2012Z TEMPO 2012/2016 4SM -RA BKN020CB FM201800 25012KT P6SM BKN020 BKN090 OVC250 FM210600 34005KT P6SM SCT020 SCT100 BKN250 FM211700 26010KT P6SM SCT020 SCT100 BKN250